Time;durP1;ratioP1;P1;durP2;ratioP2;P2;SDS_P1;SDS_P2;PMS_P1;PMS_P2;Temp;Humidity;BMP_temperature;BMP_pressure;BME280_temperature;BME280_humidity;BME280_pressure;Samples;Min_cycle;Max_cycle;Signal;HPM_P1;HPM_P2
2023/07/19 00:01:57;;;;;;;5.22;1.92;;;;;;;15.79;75.78;101338.34;5066297;28;20067;-69
2023/07/19 00:04:22;;;;;;;2.28;2.03;;;;;;;15.73;76.60;101327.94;5069876;28;20024;-68
2023/07/19 00:06:47;;;;;;;7.40;1.75;;;;;;;15.71;76.63;101332.66;5085978;28;20044;-67
2023/07/19 00:09:13;;;;;;;4.20;2.03;;;;;;;15.66;77.01;101330.31;5066408;28;20064;-68
2023/07/19 00:11:38;;;;;;;5.47;1.70;;;;;;;15.58;77.13;101324.59;5066203;28;20040;-69
2023/07/19 00:14:05;;;;;;;4.53;2.00;;;;;;;15.55;76.48;101325.72;5074640;28;20044;-68
2023/07/19 00:16:32;;;;;;;3.45;1.85;;;;;;;15.53;76.95;101325.00;5079212;28;20032;-68
2023/07/19 00:18:57;;;;;;;3.08;1.67;;;;;;;15.50;76.20;101324.38;5066105;28;20127;-69
2023/07/19 00:21:23;;;;;;;2.75;1.70;;;;;;;15.49;77.21;101328.13;5069221;28;20407;-67
2023/07/19 00:23:48;;;;;;;3.72;1.67;;;;;;;15.47;76.85;101325.50;5083827;28;20040;-68
2023/07/19 00:26:14;;;;;;;6.15;2.30;;;;;;;15.43;76.60;101320.41;5080769;28;20060;-69
2023/07/19 00:28:39;;;;;;;3.38;1.58;;;;;;;15.40;76.68;101318.81;5064581;28;20137;-68
2023/07/19 00:31:05;;;;;;;4.25;1.50;;;;;;;15.39;76.87;101311.59;5065626;28;20028;-68
2023/07/19 00:33:30;;;;;;;2.00;1.60;;;;;;;15.34;76.80;101310.22;5056350;28;20029;-68
2023/07/19 00:35:56;;;;;;;2.40;1.70;;;;;;;15.29;76.95;101300.56;5044893;28;20051;-67
2023/07/19 00:38:21;;;;;;;2.85;1.63;;;;;;;15.28;76.88;101293.31;5046883;28;20029;-68
2023/07/19 00:40:50;;;;;;;5.30;1.75;;;;;;;15.27;77.10;101296.19;5059837;28;20510;-67
2023/07/19 00:43:15;;;;;;;4.32;1.80;;;;;;;15.24;77.73;101290.94;5074740;28;20131;-68
2023/07/19 00:45:47;;;;;;;5.13;1.80;;;;;;;15.19;77.48;101290.47;5089780;28;20466;-67
2023/07/19 00:48:15;;;;;;;3.05;1.98;;;;;;;15.16;77.77;101288.00;5075307;28;20052;-67
2023/07/19 00:50:42;;;;;;;3.17;1.90;;;;;;;15.12;78.40;101281.91;5088044;28;20077;-68
2023/07/19 00:53:09;;;;;;;3.17;1.58;;;;;;;15.10;78.30;101285.78;5084323;28;20039;-67
2023/07/19 00:55:34;;;;;;;1.98;1.63;;;;;;;15.09;78.30;101289.50;5067252;28;20036;-68
2023/07/19 00:57:59;;;;;;;6.72;2.10;;;;;;;15.04;78.16;101277.06;5074322;28;20044;-68
2023/07/19 01:00:25;;;;;;;6.82;2.10;;;;;;;15.04;78.43;101281.69;5088808;28;20357;-67
2023/07/19 01:02:50;;;;;;;2.22;2.03;;;;;;;15.01;78.68;101281.94;5071189;28;20040;-68
2023/07/19 01:05:16;;;;;;;5.20;2.40;;;;;;;15.00;78.60;101282.94;5073980;28;20028;-68
2023/07/19 01:07:41;;;;;;;5.05;2.05;;;;;;;14.94;78.12;101276.09;5087565;28;20036;-67
2023/07/19 01:10:07;;;;;;;3.97;2.10;;;;;;;14.94;78.44;101288.94;5080420;28;20127;-67
2023/07/19 01:12:32;;;;;;;3.97;2.10;;;;;;;14.86;79.40;101278.63;5068948;28;20411;-67
2023/07/19 01:14:58;;;;;;;5.15;2.03;;;;;;;14.82;80.79;101279.88;5069516;28;20333;-68
2023/07/19 01:17:23;;;;;;;3.28;1.65;;;;;;;14.74;79.69;101271.44;5081235;28;20395;-67
2023/07/19 01:19:49;;;;;;;4.35;1.92;;;;;;;14.79;79.84;101271.94;5089399;28;20309;-66
2023/07/19 01:22:15;;;;;;;1.77;1.60;;;;;;;14.78;80.31;101279.28;5088627;28;20119;-67
2023/07/19 01:24:43;;;;;;;4.40;2.63;;;;;;;14.79;80.62;101269.19;5084424;28;20044;-68
2023/07/19 01:27:08;;;;;;;3.40;2.65;;;;;;;14.78;80.81;101267.41;5068367;28;20122;-67
2023/07/19 01:29:34;;;;;;;3.28;2.05;;;;;;;14.78;81.50;101257.38;5087043;28;20075;-67
2023/07/19 01:31:59;;;;;;;8.65;2.13;;;;;;;14.78;81.57;101256.47;5078719;28;20056;-67
2023/07/19 01:34:24;;;;;;;4.18;2.00;;;;;;;14.80;81.07;101254.47;5052628;28;20096;-67
2023/07/19 01:36:51;;;;;;;3.00;2.25;;;;;;;14.82;80.42;101251.59;5047979;28;20044;-67
2023/07/19 01:39:16;;;;;;;5.03;2.58;;;;;;;14.83;80.54;101247.84;5048328;28;20417;-67
2023/07/19 01:41:42;;;;;;;3.85;2.25;;;;;;;14.86;80.51;101248.47;5084714;28;20420;-68
2023/07/19 01:44:07;;;;;;;5.53;2.20;;;;;;;14.88;81.04;101248.38;5072797;28;20021;-68
2023/07/19 01:46:38;;;;;;;3.60;2.58;;;;;;;14.89;80.33;101255.59;5073305;28;20024;-67
2023/07/19 01:49:03;;;;;;;4.25;2.10;;;;;;;14.81;80.30;101258.97;5089269;28;20487;-67
2023/07/19 01:51:29;;;;;;;9.63;2.67;;;;;;;14.79;80.64;101261.84;5087102;28;20042;-67
2023/07/19 01:53:54;;;;;;;4.35;2.63;;;;;;;14.79;80.42;101259.09;5079613;28;20111;-67
2023/07/19 01:56:20;;;;;;;4.22;2.30;;;;;;;14.74;80.72;101269.56;5066068;28;20400;-67
2023/07/19 01:58:45;;;;;;;6.22;2.58;;;;;;;14.73;80.43;101256.84;5078034;28;20042;-67
2023/07/19 02:01:10;;;;;;;10.02;2.60;;;;;;;14.72;80.69;101262.47;5085200;28;20044;-67
2023/07/19 02:03:36;;;;;;;8.85;3.40;;;;;;;14.69;80.84;101257.25;5088513;28;20036;-67
2023/07/19 02:06:01;;;;;;;3.00;2.10;;;;;;;14.70;80.52;101250.78;5086722;28;20031;-67
2023/07/19 02:08:27;;;;;;;4.93;2.50;;;;;;;14.64;80.73;101241.22;5082262;28;20016;-68
2023/07/19 02:10:54;;;;;;;4.43;2.17;;;;;;;14.61;81.05;101252.41;5066179;28;20374;-68
2023/07/19 02:13:19;;;;;;;3.58;2.78;;;;;;;14.64;81.06;101248.53;5065812;28;20021;-67
2023/07/19 02:15:46;;;;;;;7.53;2.83;;;;;;;14.64;80.88;101246.69;5068111;28;20472;-67
2023/07/19 02:18:12;;;;;;;3.10;2.28;;;;;;;14.62;80.78;101234.09;5084616;28;20050;-67
2023/07/19 02:20:43;;;;;;;4.57;2.60;;;;;;;14.62;81.05;101236.84;5087712;28;20036;-67
2023/07/19 02:23:08;;;;;;;3.28;2.47;;;;;;;14.58;81.45;101241.69;5079744;28;20040;-67
2023/07/19 02:25:33;;;;;;;6.28;2.70;;;;;;;14.57;80.71;101234.50;5065617;28;20458;-68
2023/07/19 02:28:00;;;;;;;7.25;3.00;;;;;;;14.52;81.43;101234.88;5054024;28;20040;-68
2023/07/19 02:30:25;;;;;;;6.68;2.80;;;;;;;14.50;81.59;101234.16;5088394;28;20109;-67
2023/07/19 02:32:51;;;;;;;7.03;2.42;;;;;;;14.52;81.26;101239.47;5080584;28;20070;-67
2023/07/19 02:35:17;;;;;;;4.60;2.60;;;;;;;14.52;81.00;101237.59;5067255;28;20032;-68
2023/07/19 02:37:42;;;;;;;5.43;2.78;;;;;;;14.53;81.66;101239.34;5065484;28;20438;-67
2023/07/19 02:40:08;;;;;;;4.32;2.60;;;;;;;14.52;81.46;101236.75;5083607;28;20123;-68
2023/07/19 02:42:33;;;;;;;4.97;2.45;;;;;;;14.51;81.37;101230.41;5083255;28;20545;-67
2023/07/19 02:44:59;;;;;;;5.93;2.67;;;;;;;14.48;82.33;101227.91;5063419;28;20389;-67
2023/07/19 02:47:25;;;;;;;5.63;2.58;;;;;;;14.49;81.06;101239.72;5072150;28;20058;-68
2023/07/19 02:49:52;;;;;;;3.97;2.33;;;;;;;14.50;81.61;101247.84;5087690;28;20127;-67
2023/07/19 02:52:17;;;;;;;6.28;2.45;;;;;;;14.50;81.77;101241.47;5087193;28;20039;-68
2023/07/19 02:54:42;;;;;;;4.03;2.53;;;;;;;14.51;81.90;101244.09;5085393;28;20042;-68
2023/07/19 02:57:08;;;;;;;4.53;2.42;;;;;;;14.53;82.65;101242.09;5087273;28;20089;-67
2023/07/19 02:59:33;;;;;;;5.53;2.92;;;;;;;14.56;81.94;101240.97;5066810;28;20046;-68
2023/07/19 03:01:58;;;;;;;3.90;2.80;;;;;;;14.58;82.42;101249.06;5074337;28;20040;-69
2023/07/19 03:04:23;;;;;;;6.10;3.00;;;;;;;14.57;82.77;101234.50;5086462;28;20514;-68
2023/07/19 03:06:49;;;;;;;3.08;2.63;;;;;;;14.61;82.91;101244.19;5083344;28;20593;-67
2023/07/19 03:09:15;;;;;;;6.15;2.53;;;;;;;14.63;82.59;101239.44;5085427;28;20042;-67
2023/07/19 03:11:41;;;;;;;4.55;2.90;;;;;;;14.60;83.84;101239.72;5083891;28;20059;-67
2023/07/19 03:14:06;;;;;;;5.20;2.50;;;;;;;14.61;82.93;101235.13;5070802;28;20032;-68
2023/07/19 03:16:31;;;;;;;4.50;2.58;;;;;;;14.64;83.85;101246.69;5052538;28;20055;-68
2023/07/19 03:18:57;;;;;;;3.25;2.70;;;;;;;14.68;83.45;101245.41;5086400;28;20032;-67
2023/07/19 03:21:22;;;;;;;5.63;2.70;;;;;;;14.72;83.82;101248.75;5083932;28;20093;-68
2023/07/19 03:23:48;;;;;;;7.38;3.08;;;;;;;14.73;84.68;101247.75;5085214;28;20421;-67
2023/07/19 03:26:13;;;;;;;6.47;3.30;;;;;;;14.71;84.95;101247.03;5084741;28;20429;-67
2023/07/19 03:28:39;;;;;;;8.25;3.42;;;;;;;14.69;85.17;101247.19;5083146;28;20553;-67
2023/07/19 03:31:10;;;;;;;5.43;3.10;;;;;;;14.67;84.53;101242.81;5085579;28;20043;-67
2023/07/19 03:33:35;;;;;;;3.60;2.90;;;;;;;14.72;84.61;101248.75;5067127;28;20119;-68
2023/07/19 03:36:01;;;;;;;4.65;2.90;;;;;;;14.75;84.94;101259.47;5046349;28;20132;-68
2023/07/19 03:38:27;;;;;;;5.13;3.42;;;;;;;14.75;85.83;101260.34;5059943;28;20139;-68
2023/07/19 03:40:54;;;;;;;6.03;3.33;;;;;;;14.75;86.29;101243.03;5085316;28;20116;-67
2023/07/19 03:43:19;;;;;;;7.47;3.28;;;;;;;14.75;86.64;101252.13;5083311;28;20467;-68
2023/07/19 03:45:45;;;;;;;9.55;3.85;;;;;;;14.77;85.59;101257.47;5085261;28;20515;-68
2023/07/19 03:48:11;;;;;;;4.50;3.20;;;;;;;14.79;86.79;101260.97;5083329;28;20440;-67
2023/07/19 03:50:37;;;;;;;5.13;3.50;;;;;;;14.80;85.25;101257.22;5080599;28;20086;-68
2023/07/19 03:53:04;;;;;;;8.15;3.40;;;;;;;14.78;85.58;101254.63;5064708;28;20094;-67
2023/07/19 03:55:30;;;;;;;6.07;2.90;;;;;;;14.78;85.99;101253.72;5044711;28;20130;-68
2023/07/19 03:57:56;;;;;;;5.35;3.22;;;;;;;14.82;86.10;101257.09;5054484;28;20028;-68
2023/07/19 04:00:22;;;;;;;5.70;2.95;;;;;;;14.85;86.02;101262.31;5085358;28;20059;-68
2023/07/19 04:02:48;;;;;;;5.97;3.20;;;;;;;14.87;85.80;101258.44;5083404;28;20051;-68
2023/07/19 04:05:16;;;;;;;4.03;2.85;;;;;;;14.88;85.52;101254.72;5078813;28;20474;-67
2023/07/19 04:07:41;;;;;;;4.55;3.20;;;;;;;14.90;85.53;101257.31;5064530;28;20056;-68
2023/07/19 04:10:07;;;;;;;5.05;2.88;;;;;;;14.91;86.27;101250.84;5064376;28;20029;-68
2023/07/19 04:12:32;;;;;;;4.68;3.05;;;;;;;14.91;86.26;101246.22;5065223;28;20507;-67
2023/07/19 04:14:57;;;;;;;5.80;3.50;;;;;;;14.92;86.54;101242.50;5075640;28;20488;-67
2023/07/19 04:17:25;;;;;;;4.50;3.70;;;;;;;14.97;86.40;101247.59;5080225;28;20681;-67
2023/07/19 04:19:50;;;;;;;6.40;4.10;;;;;;;15.00;86.27;101244.56;5089985;28;20225;-68
2023/07/19 04:22:16;;;;;;;7.80;4.10;;;;;;;15.01;86.56;101244.47;5088274;28;20067;-68
2023/07/19 04:24:41;;;;;;;7.55;3.78;;;;;;;15.01;86.66;101251.78;5080404;28;20114;-67
2023/07/19 04:27:07;;;;;;;4.68;4.18;;;;;;;15.02;86.88;101246.19;5067705;28;20051;-68
2023/07/19 04:29:33;;;;;;;8.00;4.57;;;;;;;15.04;86.73;101243.31;5085765;28;20059;-68
2023/07/19 04:31:58;;;;;;;5.78;4.38;;;;;;;15.07;86.36;101248.56;5079637;28;20048;-68
2023/07/19 04:34:24;;;;;;;7.20;4.60;;;;;;;15.11;86.44;101247.28;5065819;28;20039;-68
2023/07/19 04:36:49;;;;;;;6.20;4.10;;;;;;;15.13;86.74;101250.75;5047705;28;20404;-68
2023/07/19 04:39:16;;;;;;;5.18;4.07;;;;;;;15.17;86.85;101249.50;5067933;28;20496;-68
2023/07/19 04:41:42;;;;;;;6.43;3.80;;;;;;;15.21;86.73;101256.47;5068105;28;20488;-68
2023/07/19 04:44:08;;;;;;;10.02;4.50;;;;;;;15.26;87.42;101253.34;5068318;28;20081;-67
2023/07/19 04:46:33;;;;;;;7.60;4.40;;;;;;;15.31;87.36;101257.41;5072241;28;20115;-67
2023/07/19 04:48:59;;;;;;;7.53;4.25;;;;;;;15.31;87.97;101260.16;5088410;28;20028;-68
2023/07/19 04:51:24;;;;;;;6.78;4.00;;;;;;;15.29;88.69;101256.69;5088900;28;20051;-68
2023/07/19 04:53:50;;;;;;;7.82;4.03;;;;;;;15.31;88.40;101260.16;5088117;28;20051;-68
2023/07/19 04:56:15;;;;;;;5.43;4.15;;;;;;;15.32;88.03;101261.88;5087539;28;20020;-69
2023/07/19 04:58:42;;;;;;;13.60;4.45;;;;;;;15.38;88.06;101267.84;5086319;28;20537;-68
2023/07/19 05:01:08;;;;;;;7.38;4.55;;;;;;;15.39;88.49;101267.72;5085193;28;20032;-68
2023/07/19 05:03:35;;;;;;;9.90;4.72;;;;;;;15.43;87.99;101260.94;5067817;28;20508;-67
2023/07/19 05:06:00;;;;;;;5.40;4.00;;;;;;;15.51;87.83;101266.66;5058829;28;20037;-68
2023/07/19 05:08:26;;;;;;;5.57;4.60;;;;;;;15.55;87.21;101267.25;5053712;28;20024;-68
2023/07/19 05:10:52;;;;;;;6.40;4.93;;;;;;;15.62;87.93;101267.59;5065355;28;20040;-67
2023/07/19 05:13:17;;;;;;;5.03;4.40;;;;;;;15.72;87.48;101271.31;5072035;28;20103;-68
2023/07/19 05:15:42;;;;;;;8.05;5.15;;;;;;;15.77;87.51;101267.16;5069712;28;20454;-68
2023/07/19 05:18:11;;;;;;;8.60;5.00;;;;;;;15.85;88.49;101261.00;5085286;28;20454;-68
2023/07/19 05:20:38;;;;;;;11.18;6.03;;;;;;;15.95;88.98;101274.78;5087377;28;20056;-68
2023/07/19 05:23:03;;;;;;;9.35;5.85;;;;;;;16.05;87.57;101271.09;5087191;28;20111;-68
2023/07/19 05:25:29;;;;;;;11.23;5.70;;;;;;;16.15;87.10;101265.66;5067824;28;20028;-67
2023/07/19 05:27:54;;;;;;;11.73;5.75;;;;;;;16.26;85.83;101265.53;5084537;28;20037;-67
2023/07/19 05:30:21;;;;;;;9.73;5.60;;;;;;;16.37;86.40;101261.84;5064843;28;20032;-68
2023/07/19 05:32:46;;;;;;;8.85;5.65;;;;;;;16.47;85.89;101262.75;5075933;28;20044;-68
2023/07/19 05:35:12;;;;;;;11.35;5.25;;;;;;;16.56;84.26;101263.81;5048724;28;20461;-67
2023/07/19 05:37:39;;;;;;;6.25;5.38;;;;;;;16.65;84.24;101265.72;5072606;28;20085;-67
2023/07/19 05:40:05;;;;;;;12.55;6.72;;;;;;;16.70;84.39;101263.41;5087783;28;20055;-67
2023/07/19 05:42:30;;;;;;;8.95;6.18;;;;;;;16.79;82.60;101264.47;5085534;28;20035;-68
2023/07/19 05:44:56;;;;;;;10.65;6.05;;;;;;;16.88;84.20;101255.38;5048748;28;20044;-68
2023/07/19 05:47:21;;;;;;;9.43;6.32;;;;;;;17.00;82.70;101254.22;5060234;28;20028;-68
2023/07/19 05:49:46;;;;;;;10.27;5.85;;;;;;;17.12;82.55;101252.22;5068472;28;20024;-67
2023/07/19 05:52:12;;;;;;;11.88;6.72;;;;;;;17.20;81.11;101254.22;5067473;28;20032;-67
2023/07/19 05:54:38;;;;;;;8.15;5.88;;;;;;;17.31;82.28;101252.22;5065927;28;20025;-68
2023/07/19 05:57:04;;;;;;;12.93;5.57;;;;;;;17.43;80.09;101261.19;5067427;28;20537;-68
2023/07/19 05:59:29;;;;;;;10.05;5.53;;;;;;;17.53;80.98;101256.56;5067142;28;20060;-68
2023/07/19 06:01:54;;;;;;;9.10;5.78;;;;;;;17.59;80.36;101266.13;5074774;28;20036;-68
2023/07/19 06:04:20;;;;;;;12.43;6.43;;;;;;;17.64;79.72;101263.78;5088538;28;20540;-68
2023/07/19 06:06:46;;;;;;;10.05;5.82;;;;;;;17.67;79.70;101268.97;5076000;28;20114;-68
2023/07/19 06:09:11;;;;;;;9.32;5.60;;;;;;;17.71;79.22;101264.06;5074416;28;20044;-68
2023/07/19 06:11:37;;;;;;;11.32;5.90;;;;;;;17.81;81.02;101257.56;5068005;28;20059;-68
2023/07/19 06:14:02;;;;;;;11.13;5.88;;;;;;;17.93;78.61;101261.00;5067670;28;20036;-68
2023/07/19 06:16:28;;;;;;;12.50;5.93;;;;;;;18.02;79.66;101262.88;5071134;28;20103;-68
2023/07/19 06:18:53;;;;;;;8.60;5.70;;;;;;;18.09;78.65;101261.25;5088918;28;20047;-68
2023/07/19 06:21:19;;;;;;;9.80;5.85;;;;;;;18.19;76.26;101263.13;5086646;28;20123;-68
2023/07/19 06:23:44;;;;;;;7.70;5.60;;;;;;;18.28;78.79;101262.22;5087387;28;20047;-68
2023/07/19 06:26:10;;;;;;;9.18;5.07;;;;;;;18.39;76.83;101258.41;5087300;28;20450;-68
2023/07/19 06:28:36;;;;;;;11.43;5.28;;;;;;;18.54;77.04;101259.63;5086495;28;20093;-67
2023/07/19 06:31:01;;;;;;;9.57;4.95;;;;;;;18.64;76.67;101246.66;5085350;28;20028;-68
2023/07/19 06:33:29;;;;;;;9.63;5.32;;;;;;;18.63;74.27;101252.31;5066559;28;20052;-67
2023/07/19 06:35:54;;;;;;;8.82;5.13;;;;;;;18.70;76.18;101253.47;5066966;28;20029;-67
2023/07/19 06:38:20;;;;;;;13.23;5.22;;;;;;;18.67;75.63;101257.38;5066434;28;20349;-67
2023/07/19 06:40:45;;;;;;;9.88;5.13;;;;;;;18.66;75.36;101257.53;5066825;28;20055;-67
2023/07/19 06:43:10;;;;;;;9.57;5.10;;;;;;;18.71;74.23;101250.56;5072192;28;20032;-68
2023/07/19 06:45:36;;;;;;;9.02;5.15;;;;;;;18.77;74.24;101262.88;5086199;28;20036;-68
2023/07/19 06:48:01;;;;;;;10.38;4.45;;;;;;;18.79;75.48;101258.94;5086014;28;20075;-67
2023/07/19 06:50:27;;;;;;;9.40;5.53;;;;;;;18.97;76.24;101255.31;5086591;28;20040;-68
2023/07/19 06:52:52;;;;;;;9.02;5.35;;;;;;;19.18;74.80;101250.38;5082701;28;20127;-68
2023/07/19 06:55:17;;;;;;;7.70;5.13;;;;;;;19.43;74.63;101262.50;5066722;28;20412;-67
2023/07/19 06:57:43;;;;;;;19.67;5.65;;;;;;;19.53;73.82;101254.16;5068208;28;20028;-67
2023/07/19 07:00:08;;;;;;;10.32;5.05;;;;;;;19.51;73.63;101258.97;5087660;28;20111;-68
2023/07/19 07:02:34;;;;;;;9.85;5.22;;;;;;;19.57;71.34;101256.44;5072675;28;20467;-68
2023/07/19 07:05:00;;;;;;;10.40;4.93;;;;;;;19.71;71.87;101263.31;5067209;28;20143;-67
2023/07/19 07:07:25;;;;;;;10.07;4.95;;;;;;;19.80;71.52;101254.06;5067178;28;20529;-68
2023/07/19 07:09:50;;;;;;;7.95;5.18;;;;;;;19.91;71.38;101261.22;5064300;28;20439;-67
2023/07/19 07:12:16;;;;;;;9.38;5.18;;;;;;;20.08;72.37;101265.81;5065677;28;20050;-68
2023/07/19 07:14:41;;;;;;;9.82;4.68;;;;;;;20.29;71.78;101257.16;5084591;28;20054;-68
2023/07/19 07:17:07;;;;;;;7.43;4.20;;;;;;;20.49;68.57;101266.09;5077070;28;20547;-68
2023/07/19 07:19:32;;;;;;;10.52;4.60;;;;;;;20.55;68.60;101262.66;5066924;28;20496;-67
2023/07/19 07:21:58;;;;;;;11.55;5.10;;;;;;;20.79;69.22;101264.63;5066512;28;20095;-68
2023/07/19 07:24:24;;;;;;;13.95;4.82;;;;;;;21.01;70.61;101263.16;5065755;28;20051;-67
2023/07/19 07:26:49;;;;;;;7.00;3.67;;;;;;;21.06;66.96;101259.88;5066286;28;20480;-67
2023/07/19 07:29:15;;;;;;;6.75;3.90;;;;;;;21.03;67.12;101258.34;5066401;28;20395;-68
2023/07/19 07:31:40;;;;;;;10.63;4.47;;;;;;;20.94;67.35;101264.88;5066266;28;20043;-68
2023/07/19 07:34:06;;;;;;;9.68;3.85;;;;;;;20.82;66.37;101260.69;5052754;28;20117;-68
2023/07/19 07:36:31;;;;;;;8.02;3.90;;;;;;;20.75;67.21;101266.03;5081663;28;20440;-68
2023/07/19 07:38:56;;;;;;;7.72;3.70;;;;;;;20.64;67.20;101258.88;5087137;28;20127;-68
2023/07/19 07:41:22;;;;;;;9.80;3.47;;;;;;;20.60;67.42;101251.09;5086161;28;20099;-68
2023/07/19 07:43:47;;;;;;;11.20;3.55;;;;;;;20.61;67.76;101258.34;5076953;28;20036;-68
2023/07/19 07:46:13;;;;;;;9.80;4.03;;;;;;;20.61;66.52;101255.59;5083647;28;20036;-67
2023/07/19 07:48:38;;;;;;;10.73;3.58;;;;;;;20.70;66.13;101257.34;5093137;28;20044;-67
2023/07/19 07:51:03;;;;;;;9.32;3.53;;;;;;;20.75;67.21;101251.31;5093348;28;20349;-67
2023/07/19 07:53:28;;;;;;;8.23;2.90;;;;;;;20.79;67.42;101247.19;5089944;28;20376;-68
2023/07/19 07:55:54;;;;;;;5.80;3.47;;;;;;;20.89;66.73;101246.03;5073265;28;20055;-67
2023/07/19 07:58:19;;;;;;;8.65;3.38;;;;;;;21.03;66.46;101254.69;5078862;28;20134;-67
2023/07/19 08:00:45;;;;;;;7.15;3.10;;;;;;;21.30;65.09;101248.84;5093495;28;20348;-67
2023/07/19 08:03:11;;;;;;;5.90;2.92;;;;;;;21.46;65.72;101249.97;5073468;28;20116;-68
2023/07/19 08:05:40;;;;;;;6.97;3.08;;;;;;;21.46;65.92;101250.81;5093044;28;20059;-67
2023/07/19 08:08:06;;;;;;;8.00;3.08;;;;;;;21.59;64.71;101242.88;5078499;28;20472;-68
2023/07/19 08:10:41;;;;;;;8.32;3.42;;;;;;;21.76;65.59;101248.38;5073029;28;20043;-68
2023/07/19 08:13:07;;;;;;;7.72;3.15;;;;;;;21.88;64.03;101245.09;5073838;28;20060;-67
2023/07/19 08:15:32;;;;;;;5.10;2.90;;;;;;;22.39;62.05;101242.06;5073047;28;20064;-67
2023/07/19 08:17:58;;;;;;;7.97;2.72;;;;;;;22.72;62.12;101228.03;5072768;28;20640;-69
2023/07/19 08:20:24;;;;;;;5.40;2.78;;;;;;;22.97;59.99;101232.44;5073616;28;20428;-67
2023/07/19 08:22:50;;;;;;;8.27;3.10;;;;;;;23.08;59.95;101229.25;5072768;28;20723;-66
2023/07/19 08:25:19;;;;;;;8.93;2.83;;;;;;;23.02;58.30;101226.34;5079460;28;20044;-67
2023/07/19 08:27:44;;;;;;;8.88;3.22;;;;;;;23.13;59.36;101223.16;5091476;28;20040;-67
2023/07/19 08:30:15;;;;;;;10.23;3.45;;;;;;;23.12;59.86;101227.81;5093519;28;20038;-67
2023/07/19 08:32:42;;;;;;;7.00;3.53;;;;;;;23.12;59.11;101235.28;5078535;28;20105;-68
2023/07/19 08:35:08;;;;;;;8.02;3.10;;;;;;;23.25;57.21;101234.69;5073091;28;20021;-68
2023/07/19 08:37:33;;;;;;;8.95;2.70;;;;;;;23.43;59.08;101232.47;5071635;28;20114;-68
2023/07/19 08:39:59;;;;;;;6.35;2.92;;;;;;;23.41;57.98;101231.78;5071626;28;20602;-67
2023/07/19 08:42:24;;;;;;;6.22;3.20;;;;;;;23.41;58.87;101232.66;5073368;28;20082;-69
2023/07/19 08:44:50;;;;;;;10.45;2.80;;;;;;;23.50;59.24;101236.22;5091330;28;20042;-67
2023/07/19 08:47:16;;;;;;;6.43;3.08;;;;;;;23.46;59.10;101234.00;5091715;28;20063;-68
2023/07/19 08:49:42;;;;;;;9.57;3.13;;;;;;;23.46;58.61;101237.66;5093401;28;20054;-67
2023/07/19 08:52:07;;;;;;;5.60;3.15;;;;;;;23.53;58.00;101243.31;5075411;28;20491;-67
2023/07/19 08:54:33;;;;;;;7.32;2.70;;;;;;;23.77;56.21;101236.69;5072565;28;20392;-66
2023/07/19 08:56:58;;;;;;;8.55;3.00;;;;;;;23.93;57.02;101237.41;5071015;28;20036;-67
2023/07/19 08:59:25;;;;;;;7.50;3.15;;;;;;;24.23;56.71;101223.53;5085014;28;20108;-68
2023/07/19 09:01:50;;;;;;;6.68;2.90;;;;;;;24.51;56.13;101226.53;5087610;28;20043;-68
2023/07/19 09:04:16;;;;;;;7.28;3.08;;;;;;;24.80;57.81;101227.53;5090095;28;20109;-68
2023/07/19 09:06:41;;;;;;;9.80;3.55;;;;;;;25.02;53.43;101223.75;5087803;28;20027;-67
2023/07/19 09:09:10;;;;;;;8.50;2.70;;;;;;;25.10;55.90;101226.44;5075155;28;20492;-67
2023/07/19 09:11:36;;;;;;;7.93;2.97;;;;;;;25.02;53.67;101231.25;5069144;28;20046;-67
2023/07/19 09:14:01;;;;;;;9.85;3.10;;;;;;;24.96;54.55;101232.03;5074176;28;20110;-67
2023/07/19 09:16:32;;;;;;;10.65;3.25;;;;;;;25.01;56.02;101235.09;5070996;28;20028;-68
2023/07/19 09:19:00;;;;;;;4.05;2.88;;;;;;;25.19;54.66;101236.41;5090063;28;20046;-69
2023/07/19 09:21:45;;;;;;;8.43;2.90;;;;;;;25.32;52.74;101229.22;5075639;28;20440;-67
2023/07/19 09:24:11;;;;;;;10.25;3.17;;;;;;;25.22;52.34;101228.69;5068831;28;20090;-66
2023/07/19 09:26:55;;;;;;;6.93;3.05;;;;;;;24.99;53.79;101226.06;5081543;28;20031;-68
2023/07/19 09:29:21;;;;;;;7.40;2.97;;;;;;;25.00;52.78;101227.81;5073362;28;20581;-68
2023/07/19 09:31:54;;;;;;;8.73;3.17;;;;;;;25.05;53.41;101230.84;5073900;28;20472;-67
2023/07/19 09:34:26;;;;;;;6.75;3.25;;;;;;;24.98;54.40;101222.41;5073135;28;20032;-67
2023/07/19 09:36:52;;;;;;;7.57;2.95;;;;;;;25.01;54.39;101232.31;5068071;28;20356;-67
2023/07/19 09:39:18;;;;;;;7.85;2.80;;;;;;;24.78;54.00;101226.88;5067166;28;20065;-67
2023/07/19 09:41:47;;;;;;;8.32;2.35;;;;;;;24.77;54.78;101233.53;5068536;28;20427;-67
2023/07/19 09:44:15;;;;;;;5.60;2.60;;;;;;;24.93;55.03;101222.13;5069734;28;20471;-68
2023/07/19 09:46:43;;;;;;;7.03;2.70;;;;;;;25.05;54.35;101222.50;5071275;28;20112;-67
2023/07/19 09:49:08;;;;;;;8.05;2.80;;;;;;;25.13;54.86;101219.59;5089004;28;20060;-68
2023/07/19 09:51:34;;;;;;;7.43;2.63;;;;;;;25.60;55.42;101215.34;5088654;28;20112;-66
2023/07/19 09:54:08;;;;;;;9.07;2.88;;;;;;;25.59;53.79;101214.50;5088590;28;20031;-68
2023/07/19 09:56:33;;;;;;;8.02;2.28;;;;;;;25.73;52.64;101212.69;5086878;28;20048;-68
2023/07/19 09:59:00;;;;;;;7.22;2.75;;;;;;;25.62;51.71;101221.59;5075792;28;20047;-68
2023/07/19 10:01:26;;;;;;;8.20;2.60;;;;;;;25.37;51.59;101224.81;5083385;28;20040;-68
2023/07/19 10:03:52;;;;;;;5.72;2.22;;;;;;;25.03;52.65;101221.81;5068542;28;20028;-67
2023/07/19 10:06:17;;;;;;;8.73;2.45;;;;;;;24.97;53.56;101217.06;5068169;28;20055;-66
2023/07/19 10:08:42;;;;;;;7.10;2.17;;;;;;;24.90;52.76;101228.09;5068130;28;20033;-67
2023/07/19 10:11:20;;;;;;;6.00;2.20;;;;;;;24.93;54.01;101230.50;5066372;28;20033;-67
2023/07/19 10:13:58;;;;;;;6.07;2.53;;;;;;;24.84;53.09;101226.09;5077505;28;20036;-67
2023/07/19 10:16:31;;;;;;;8.85;2.10;;;;;;;24.72;52.91;101225.75;5085500;28;20032;-68
2023/07/19 10:19:14;;;;;;;4.45;1.90;;;;;;;24.59;53.63;101233.91;5068890;28;20032;-67
2023/07/19 10:22:01;;;;;;;5.15;2.00;;;;;;;24.63;53.75;101230.56;5067638;28;20102;-68
2023/07/19 10:24:26;;;;;;;5.07;1.83;;;;;;;24.58;52.12;101226.63;5066771;28;20437;-68
2023/07/19 10:26:52;;;;;;;3.35;1.65;;;;;;;24.82;52.12;101226.31;5067438;28;20150;-69
2023/07/19 10:29:17;;;;;;;6.50;2.17;;;;;;;24.96;52.42;101232.03;5067984;28;20098;-67
2023/07/19 10:31:42;;;;;;;4.05;2.20;;;;;;;25.26;50.91;101225.31;5067489;28;20529;-66
2023/07/19 10:34:08;;;;;;;4.75;1.70;;;;;;;25.75;51.87;101216.16;5067700;28;20036;-66
2023/07/19 10:36:44;;;;;;;5.60;2.00;;;;;;;26.08;51.55;101224.78;5074838;28;20024;-67
2023/07/19 10:39:09;;;;;;;2.60;1.73;;;;;;;25.95;49.57;101228.34;5087273;28;20372;-67
2023/07/19 10:41:34;;;;;;;5.20;1.83;;;;;;;25.80;48.00;101224.81;5087700;28;20047;-67
2023/07/19 10:44:00;;;;;;;4.30;2.13;;;;;;;25.36;47.26;101222.19;5075922;28;20040;-67
2023/07/19 10:46:29;;;;;;;3.55;1.83;;;;;;;24.82;50.04;101225.44;5069602;28;20471;-67
2023/07/19 10:48:54;;;;;;;5.43;1.70;;;;;;;24.74;52.20;101222.78;5088537;28;20432;-67
2023/07/19 10:51:20;;;;;;;4.43;1.67;;;;;;;24.74;50.90;101223.63;5087409;28;20043;-67
2023/07/19 10:53:48;;;;;;;7.10;1.73;;;;;;;24.78;52.59;101218.53;5087312;28;20356;-67
2023/07/19 10:56:15;;;;;;;5.90;1.75;;;;;;;24.65;51.83;101220.09;5070127;28;20060;-68
2023/07/19 10:58:42;;;;;;;6.22;2.33;;;;;;;24.91;52.64;101216.78;5067357;28;20020;-67
2023/07/19 11:01:07;;;;;;;6.78;2.17;;;;;;;25.00;50.49;101220.31;5065329;28;20104;-67
2023/07/19 11:03:32;;;;;;;5.95;2.10;;;;;;;24.98;49.90;101219.63;5085908;28;20479;-68
2023/07/19 11:05:58;;;;;;;2.95;1.70;;;;;;;24.86;50.80;101226.78;5086983;28;20020;-68
2023/07/19 11:08:27;;;;;;;7.65;1.70;;;;;;;24.66;54.96;101230.16;5087593;28;20066;-68
2023/07/19 11:10:55;;;;;;;4.47;1.70;;;;;;;24.31;54.90;101220.66;5086438;28;20051;-69
2023/07/19 11:13:22;;;;;;;3.08;1.80;;;;;;;24.18;56.45;101226.03;5080688;28;20031;-68
2023/07/19 11:15:49;;;;;;;5.63;1.98;;;;;;;24.02;54.35;101227.09;5087446;28;20067;-68
2023/07/19 11:18:28;;;;;;;5.47;1.77;;;;;;;24.33;57.29;101226.03;5084544;28;20115;-68
2023/07/19 11:20:54;;;;;;;4.05;2.03;;;;;;;24.87;58.84;101222.94;5087381;28;20126;-68